Time;durP1;ratioP1;P1;durP2;ratioP2;P2;SDS_P1;SDS_P2;PMS_P1;PMS_P2;Temp;Humidity;BMP_temperature;BMP_pressure;BME280_temperature;BME280_humidity;BME280_pressure;Samples;Min_cycle;Max_cycle;Signal;HPM_P1;HPM_P2
2021/09/27 00:00:54;;;;;;;1.25;0.40;;;9.50;99.90;;;;;;4992203;28;20046;-69
2021/09/27 00:03:22;;;;;;;2.05;0.65;;;9.60;99.90;;;;;;4977653;28;20050;-67
2021/09/27 00:05:49;;;;;;;0.80;0.40;;;9.60;99.90;;;;;;4982839;28;20054;-65
2021/09/27 00:08:17;;;;;;;1.77;0.47;;;9.60;99.90;;;;;;4980414;28;20046;-68
2021/09/27 00:10:49;;;;;;;2.65;0.63;;;9.50;99.90;;;;;;4983205;28;20711;-65
2021/09/27 00:13:17;;;;;;;6.05;0.65;;;9.60;99.90;;;;;;4979780;28;20046;-65
2021/09/27 00:15:48;;;;;;;1.17;0.65;;;9.60;99.90;;;;;;4983501;28;20142;-65
2021/09/27 00:18:16;;;;;;;0.73;0.45;;;9.60;99.90;;;;;;4981993;28;20558;-66
2021/09/27 00:20:46;;;;;;;1.95;0.60;;;9.60;99.90;;;;;;4982785;28;20080;-68
2021/09/27 00:23:15;;;;;;;2.90;1.02;;;9.60;99.90;;;;;;4980946;28;20089;-66
2021/09/27 00:25:42;;;;;;;4.57;0.68;;;9.70;99.90;;;;;;4983415;28;20133;-66
2021/09/27 00:28:09;;;;;;;3.20;1.00;;;9.70;99.90;;;;;;4980530;28;20117;-66
2021/09/27 00:30:37;;;;;;;5.25;0.80;;;9.70;99.90;;;;;;4978995;28;20097;-68
2021/09/27 00:33:04;;;;;;;1.23;0.60;;;9.70;99.90;;;;;;4981004;28;20436;-66
2021/09/27 00:35:34;;;;;;;4.05;1.00;;;9.70;99.90;;;;;;4981321;28;20073;-66
2021/09/27 00:38:01;;;;;;;2.70;1.00;;;9.70;99.90;;;;;;4983706;28;20078;-65
2021/09/27 00:40:36;;;;;;;0.80;0.45;;;9.70;99.90;;;;;;4980120;28;20081;-67
2021/09/27 00:43:06;;;;;;;2.35;0.60;;;9.70;99.90;;;;;;3558520;28;10024006;-66
2021/09/27 00:45:38;;;;;;;3.90;0.55;;;9.70;99.90;;;;;;2401376;28;10001996;-68
2021/09/27 00:48:06;;;;;;;1.55;0.60;;;9.70;99.90;;;;;;4983343;28;20050;-67
2021/09/27 00:50:41;;;;;;;1.92;1.27;;;9.60;99.90;;;;;;4980883;28;20444;-67
2021/09/27 00:53:15;;;;;;;3.08;0.70;;;9.60;99.90;;;;;;4980052;28;20042;-66
2021/09/27 00:55:42;;;;;;;4.10;0.52;;;9.60;99.90;;;;;;4982416;28;20589;-65
2021/09/27 00:58:10;;;;;;;2.40;1.45;;;9.60;99.90;;;;;;4981623;28;20069;-68
2021/09/27 01:00:37;;;;;;;1.27;0.60;;;9.60;99.90;;;;;;4982848;28;20117;-66
2021/09/27 01:03:04;;;;;;;1.58;0.60;;;9.60;99.90;;;;;;4963616;28;20039;-66
2021/09/27 01:05:35;;;;;;;2.38;0.60;;;9.60;99.90;;;;;;4981033;28;20126;-65
2021/09/27 01:08:26;;;;;;;1.20;1.15;;;9.60;99.90;;;;;;4979744;28;20066;-66
2021/09/27 01:11:13;;;;;;;2.40;1.13;;;9.50;99.90;;;;;;4981015;28;20133;-69
2021/09/27 01:14:09;;;;;;;1.55;0.50;;;9.50;99.90;;;;;;4980639;28;20151;-66
2021/09/27 01:17:03;;;;;;;0.63;0.47;;;9.50;99.90;;;;;;4982538;28;20081;-66
2021/09/27 01:19:55;;;;;;;1.45;0.90;;;9.50;99.90;;;;;;4975440;28;20496;-66
2021/09/27 01:22:48;;;;;;;0.47;0.47;;;9.50;99.90;;;;;;4981678;28;20058;-67
2021/09/27 01:25:43;;;;;;;2.20;0.90;;;9.50;99.90;;;;;;4968488;28;20154;-66
2021/09/27 01:28:33;;;;;;;1.00;0.75;;;9.50;99.90;;;;;;4979421;28;20051;-65
2021/09/27 01:31:09;;;;;;;1.38;0.68;;;9.50;99.90;;;;;;4978023;28;20460;-66
2021/09/27 01:33:56;;;;;;;2.65;0.77;;;9.50;99.90;;;;;;4982378;28;20129;-65
2021/09/27 01:36:33;;;;;;;2.40;0.80;;;9.50;99.90;;;;;;4982288;28;20161;-65
2021/09/27 01:39:16;;;;;;;1.70;0.75;;;9.40;99.90;;;;;;4978857;28;20176;-70
2021/09/27 01:41:49;;;;;;;1.90;0.95;;;9.40;99.90;;;;;;4982167;28;20368;-66
2021/09/27 01:44:34;;;;;;;1.63;0.68;;;9.40;99.90;;;;;;4980505;28;20070;-66
2021/09/27 01:47:10;;;;;;;3.30;0.90;;;9.40;99.90;;;;;;4979700;28;20157;-68
2021/09/27 01:50:12;;;;;;;2.83;1.05;;;9.40;99.90;;;;;;4980813;28;20070;-68
2021/09/27 01:52:47;;;;;;;3.05;1.23;;;9.40;99.90;;;;;;4884795;29;20171;-66
2021/09/27 01:55:22;;;;;;;2.35;0.98;;;9.40;99.90;;;;;;4964824;28;20058;-66
2021/09/27 01:57:58;;;;;;;1.98;0.65;;;9.50;99.90;;;;;;4981929;28;20085;-65
2021/09/27 02:00:39;;;;;;;1.55;0.75;;;9.50;99.90;;;;;;4977288;28;20065;-65
2021/09/27 02:03:45;;;;;;;2.40;0.88;;;9.40;99.90;;;;;;4980251;28;20050;-67
2021/09/27 02:06:14;;;;;;;3.30;0.90;;;9.40;99.90;;;;;;4918527;29;20075;-66
2021/09/27 02:09:00;;;;;;;3.10;0.65;;;9.40;99.90;;;;;;4971231;28;20073;-68
2021/09/27 02:11:36;;;;;;;2.13;1.10;;;9.40;99.90;;;;;;4980434;28;20085;-67
2021/09/27 02:14:30;;;;;;;3.05;0.90;;;9.40;99.90;;;;;;4980313;28;20049;-66
2021/09/27 02:17:09;;;;;;;2.38;1.33;;;9.40;99.90;;;;;;4980944;28;20185;-69
2021/09/27 02:19:47;;;;;;;2.75;0.88;;;9.40;99.90;;;;;;4980494;28;20882;-65
2021/09/27 02:22:18;;;;;;;4.10;1.08;;;9.40;99.90;;;;;;4982067;28;20054;-66
2021/09/27 02:24:54;;;;;;;4.07;1.38;;;9.40;99.90;;;;;;4985183;28;20124;-65
2021/09/27 02:27:22;;;;;;;3.65;0.90;;;9.40;99.90;;;;;;4982974;28;20142;-67
2021/09/27 02:29:49;;;;;;;5.53;0.93;;;9.40;99.90;;;;;;4983749;28;20484;-70
2021/09/27 02:32:30;;;;;;;1.52;1.42;;;9.40;99.90;;;;;;4983048;28;20089;-66
2021/09/27 02:34:57;;;;;;;4.07;2.25;;;9.40;99.90;;;;;;4983197;28;20532;-66
2021/09/27 02:37:47;;;;;;;3.50;1.15;;;9.50;99.90;;;;;;4985362;28;20125;-65
2021/09/27 02:40:40;;;;;;;1.42;1.00;;;9.50;99.90;;;;;;4985958;28;20081;-66
2021/09/27 02:43:10;;;;;;;7.00;0.98;;;9.50;99.90;;;;;;4980483;28;20093;-66
2021/09/27 02:45:38;;;;;;;;;;;9.50;99.90;;;;;;4980995;28;20082;-66
2021/09/27 02:48:28;;;;;;;2.25;1.20;;;9.50;99.90;;;;;;4967167;28;19929;-65
2021/09/27 02:50:56;;;;;;;1.80;1.70;;;9.50;99.90;;;;;;4983025;28;20109;-66
2021/09/27 02:53:23;;;;;;;5.18;1.45;;;9.50;99.90;;;;;;4984618;28;20124;-66
2021/09/27 02:55:55;;;;;;;3.22;0.98;;;9.50;99.90;;;;;;4984631;28;20644;-66
2021/09/27 02:58:44;;;;;;;3.33;0.98;;;9.60;99.90;;;;;;4984877;28;20817;-67
2021/09/27 03:01:20;;;;;;;4.18;0.90;;;9.60;99.90;;;;;;4979966;28;20142;-67
2021/09/27 03:04:05;;;;;;;1.83;1.25;;;9.50;99.90;;;;;;4985307;28;20443;-65
2021/09/27 03:07:03;;;;;;;2.15;1.25;;;9.60;99.90;;;;;;4984055;28;20152;-65
2021/09/27 03:09:48;;;;;;;1.42;1.25;;;9.60;99.90;;;;;;4979344;28;20042;-66
2021/09/27 03:12:44;;;;;;;1.30;1.20;;;9.50;99.90;;;;;;4983764;28;20077;-66
2021/09/27 03:15:51;;;;;;;3.53;1.63;;;9.50;99.90;;;;;;4933141;28;20042;-64
2021/09/27 03:18:40;;;;;;;1.63;1.17;;;9.60;99.90;;;;;;4940859;28;20046;-66
2021/09/27 03:21:29;;;;;;;3.08;0.85;;;9.60;99.90;;;;;;4980913;28;20571;-65
2021/09/27 03:24:26;;;;;;;1.55;1.20;;;9.50;99.90;;;;;;4984181;28;20132;-68
2021/09/27 03:27:00;;;;;;;2.92;1.33;;;9.50;99.90;;;;;;4983025;28;20124;-66
2021/09/27 03:29:50;;;;;;;1.98;1.17;;;9.50;99.90;;;;;;4982315;28;20217;-67
2021/09/27 03:32:51;;;;;;;2.03;1.35;;;9.50;99.90;;;;;;4985510;28;20097;-67
2021/09/27 03:35:54;;;;;;;1.52;1.20;;;9.50;99.90;;;;;;4965556;28;20038;-65
2021/09/27 03:38:55;;;;;;;2.45;1.08;;;9.50;99.90;;;;;;4975964;28;20054;-67
2021/09/27 03:41:35;;;;;;;1.55;1.20;;;9.50;99.90;;;;;;4982607;28;20058;-66
2021/09/27 03:44:12;;;;;;;1.98;1.55;;;9.50;99.90;;;;;;4965463;28;20050;-67
2021/09/27 03:46:55;;;;;;;4.55;1.58;;;9.60;99.90;;;;;;4984601;28;20582;-65
2021/09/27 03:49:39;;;;;;;1.55;1.40;;;9.60;99.90;;;;;;4982261;28;20074;-69
2021/09/27 03:52:12;;;;;;;5.43;2.30;;;9.60;99.90;;;;;;4982679;28;20567;-65
2021/09/27 03:54:50;;;;;;;2.25;1.33;;;9.60;99.90;;;;;;4983169;28;20739;-67
2021/09/27 03:57:32;;;;;;;5.50;1.75;;;9.60;99.90;;;;;;4981482;28;20219;-67
2021/09/27 04:00:04;;;;;;;1.50;1.40;;;9.70;99.90;;;;;;4986465;28;20108;-67
2021/09/27 04:02:51;;;;;;;4.03;1.35;;;9.70;99.90;;;;;;4983065;28;20061;-68
2021/09/27 04:05:50;;;;;;;3.10;1.20;;;9.70;99.90;;;;;;4981293;28;20050;-65
2021/09/27 04:08:28;;;;;;;2.60;1.30;;;9.70;99.90;;;;;;4981304;28;20085;-68
2021/09/27 04:11:33;;;;;;;3.70;1.67;;;9.70;99.90;;;;;;4980185;28;20091;-66
2021/09/27 04:14:27;;;;;;;1.98;1.27;;;9.70;99.90;;;;;;4965897;28;20167;-67
2021/09/27 04:17:16;;;;;;;3.33;1.63;;;9.70;99.90;;;;;;4979085;28;20137;-66
2021/09/27 04:19:46;;;;;;;5.65;1.52;;;9.70;99.90;;;;;;4982722;28;20392;-65
2021/09/27 04:22:28;;;;;;;1.98;1.85;;;9.70;99.90;;;;;;4981039;28;20084;-68
2021/09/27 04:25:15;;;;;;;1.88;1.67;;;9.70;99.90;;;;;;4976527;28;20133;-68
2021/09/27 04:27:54;;;;;;;1.40;1.10;;;9.60;99.90;;;;;;4980873;28;20443;-67
2021/09/27 04:30:44;;;;;;;5.80;1.67;;;9.60;99.90;;;;;;4979796;28;20515;-70
2021/09/27 04:33:26;;;;;;;3.07;1.67;;;9.70;99.90;;;;;;4980918;28;20141;-67
2021/09/27 04:36:25;;;;;;;4.93;1.90;;;9.60;99.90;;;;;;4981618;28;20372;-66
2021/09/27 04:38:56;;;;;;;2.97;1.80;;;9.60;99.90;;;;;;4970134;28;20129;-65
2021/09/27 04:41:37;;;;;;;2.65;1.52;;;9.60;99.90;;;;;;4981074;28;20058;-66
2021/09/27 04:44:18;;;;;;;1.63;1.52;;;9.60;99.90;;;;;;4982163;28;20140;-68
2021/09/27 04:46:52;;;;;;;2.38;1.40;;;9.70;99.90;;;;;;4981223;28;20096;-66
2021/09/27 04:49:32;;;;;;;4.68;1.58;;;9.70;99.90;;;;;;4977248;28;20062;-65
2021/09/27 04:52:29;;;;;;;5.20;1.35;;;9.70;99.90;;;;;;4981971;28;20116;-68
2021/09/27 04:55:06;;;;;;;2.78;2.03;;;9.70;99.90;;;;;;4926353;28;20679;-68
2021/09/27 04:57:59;;;;;;;4.03;1.50;;;9.70;99.90;;;;;;4982287;28;20457;-66
2021/09/27 05:00:41;;;;;;;3.33;1.83;;;9.70;99.90;;;;;;4972360;28;20752;-64
2021/09/27 05:03:17;;;;;;;2.53;1.55;;;9.70;99.90;;;;;;4980075;28;20116;-67
2021/09/27 05:06:22;;;;;;;4.13;2.22;;;9.70;99.90;;;;;;4982961;28;20081;-65
2021/09/27 05:09:20;;;;;;;2.00;1.20;;;9.80;99.90;;;;;;4980465;28;20129;-67
2021/09/27 05:12:25;;;;;;;2.20;1.52;;;9.80;99.90;;;;;;4981034;28;20124;-68
2021/09/27 05:15:21;;;;;;;4.10;1.88;;;9.80;99.90;;;;;;4979191;28;20148;-67
2021/09/27 05:18:10;;;;;;;5.22;2.25;;;9.80;99.90;;;;;;4977897;28;20483;-69
2021/09/27 05:21:15;;;;;;;3.65;2.08;;;9.90;99.90;;;;;;4981758;28;20050;-66
2021/09/27 05:24:23;;;;;;;3.13;2.38;;;9.90;99.90;;;;;;4865067;29;20089;-65
2021/09/27 05:27:33;;;;;;;7.30;2.10;;;9.90;99.90;;;;;;4877277;29;20166;-66
2021/09/27 05:30:15;;;;;;;3.40;1.98;;;10.00;99.90;;;;;;4908511;29;20086;-67
2021/09/27 05:32:59;;;;;;;3.55;1.52;;;10.00;99.90;;;;;;4971671;28;20118;-67
2021/09/27 05:35:47;;;;;;;5.18;1.67;;;10.00;99.90;;;;;;4969599;28;20121;-66
2021/09/27 05:38:13;;;;;;;2.88;1.63;;;10.10;99.90;;;;;;4977965;28;20441;-67
2021/09/27 05:41:06;;;;;;;3.65;1.95;;;10.10;99.90;;;;;;4980070;28;20130;-70
2021/09/27 05:43:48;;;;;;;2.45;2.25;;;10.10;99.90;;;;;;4980366;28;20051;-67
2021/09/27 05:46:31;;;;;;;3.40;1.92;;;10.20;99.90;;;;;;4979710;28;20074;-67
2021/09/27 05:49:01;;;;;;;5.30;1.95;;;10.20;99.90;;;;;;4981073;28;20133;-65
2021/09/27 05:51:37;;;;;;;3.42;2.28;;;10.30;99.90;;;;;;4981131;28;20053;-65
2021/09/27 05:54:12;;;;;;;3.28;1.95;;;10.40;99.90;;;;;;4976629;28;20129;-67
2021/09/27 05:56:51;;;;;;;5.43;1.48;;;10.40;99.90;;;;;;4982106;28;20129;-65
2021/09/27 05:59:28;;;;;;;4.22;2.45;;;10.50;99.90;;;;;;4983980;28;20045;-65
2021/09/27 06:02:02;;;;;;;2.13;1.55;;;10.50;99.90;;;;;;4984390;28;20077;-69
2021/09/27 06:05:12;;;;;;;2.70;2.15;;;10.60;99.90;;;;;;4984269;28;20061;-69
2021/09/27 06:07:51;;;;;;;5.23;2.47;;;10.70;99.90;;;;;;4985214;28;20066;-67
2021/09/27 06:10:28;;;;;;;2.80;1.50;;;10.70;99.90;;;;;;4984562;28;20078;-65
2021/09/27 06:13:11;;;;;;;6.45;2.30;;;10.70;99.90;;;;;;4984495;28;20078;-68
2021/09/27 06:15:46;;;;;;;4.93;2.50;;;10.70;99.90;;;;;;4984244;28;20042;-66
2021/09/27 06:18:41;;;;;;;5.03;3.15;;;10.80;99.90;;;;;;4983213;28;20114;-68
2021/09/27 06:21:20;;;;;;;7.10;1.60;;;10.90;99.90;;;;;;4984431;28;20104;-65
2021/09/27 06:24:13;;;;;;;4.63;1.80;;;10.90;99.90;;;;;;4966404;28;20054;-68
2021/09/27 06:26:51;;;;;;;3.55;1.67;;;11.00;99.90;;;;;;4986247;28;20097;-66
2021/09/27 06:29:39;;;;;;;2.53;1.20;;;11.10;99.90;;;;;;4982490;28;20054;-67
2021/09/27 06:32:35;;;;;;;1.92;1.25;;;11.10;99.90;;;;;;4981715;28;20136;-67
2021/09/27 06:35:07;;;;;;;5.22;1.27;;;11.20;99.90;;;;;;4983690;28;20153;-65
2021/09/27 06:37:34;;;;;;;1.50;1.00;;;11.30;99.90;;;;;;4985321;28;20062;-68
2021/09/27 06:40:05;;;;;;;3.97;1.10;;;11.30;99.90;;;;;;4984201;28;20902;-68
2021/09/27 06:42:32;;;;;;;2.33;1.13;;;11.40;99.90;;;;;;4984217;28;20074;-66
2021/09/27 06:45:00;;;;;;;5.82;1.65;;;11.40;99.90;;;;;;4981228;28;20128;-65
2021/09/27 06:47:27;;;;;;;3.33;1.25;;;11.40;99.90;;;;;;4977624;28;20739;-68
2021/09/27 06:49:54;;;;;;;2.40;1.33;;;11.50;99.90;;;;;;4984813;28;20050;-69
2021/09/27 06:52:21;;;;;;;2.83;1.48;;;11.60;99.90;;;;;;4980443;28;20069;-68
2021/09/27 06:54:47;;;;;;;2.33;1.42;;;11.70;99.90;;;;;;4984823;28;20050;-66
2021/09/27 06:57:14;;;;;;;3.53;1.33;;;11.80;99.90;;;;;;4982077;28;20112;-65
2021/09/27 06:59:41;;;;;;;3.13;1.20;;;11.80;99.90;;;;;;4951497;28;20845;-66
2021/09/27 07:02:18;;;;;;;6.00;0.98;;;11.90;99.90;;;;;;4982056;28;20050;-68
2021/09/27 07:04:46;;;;;;;3.17;1.35;;;12.00;99.90;;;;;;4980705;28;20046;-66
2021/09/27 07:07:13;;;;;;;5.93;1.17;;;12.00;99.90;;;;;;4981802;28;20136;-66
2021/09/27 07:09:40;;;;;;;2.35;1.95;;;12.10;99.90;;;;;;4982766;28;20074;-71
2021/09/27 07:12:10;;;;;;;2.60;1.38;;;12.20;99.90;;;;;;4983829;28;20074;-65
2021/09/27 07:14:38;;;;;;;2.03;1.50;;;12.30;99.90;;;;;;4984104;28;20801;-67
2021/09/27 07:17:05;;;;;;;3.00;0.85;;;12.40;99.90;;;;;;4982644;28;20627;-68
2021/09/27 07:19:32;;;;;;;5.22;1.92;;;12.50;99.90;;;;;;4984419;28;20046;-65
2021/09/27 07:22:08;;;;;;;4.15;0.80;;;12.60;99.90;;;;;;4984412;28;20050;-68
2021/09/27 07:24:36;;;;;;;1.95;1.08;;;12.60;99.90;;;;;;4982470;28;20078;-67
2021/09/27 07:27:03;;;;;;;1.15;0.50;;;12.70;99.90;;;;;;4978364;28;20157;-69
2021/09/27 07:29:30;;;;;;;2.28;0.65;;;12.80;99.90;;;;;;4977281;28;20081;-68
2021/09/27 07:31:58;;;;;;;2.03;0.85;;;12.90;99.90;;;;;;4984178;28;20054;-65
2021/09/27 07:34:25;;;;;;;1.40;1.17;;;13.00;99.90;;;;;;4982271;28;20045;-68
2021/09/27 07:36:52;;;;;;;1.45;0.57;;;13.00;99.90;;;;;;4980608;28;20131;-69
2021/09/27 07:39:19;;;;;;;1.77;0.63;;;13.10;99.90;;;;;;4978248;28;20349;-68
2021/09/27 07:41:47;;;;;;;1.25;0.68;;;13.20;99.90;;;;;;4966272;28;20647;-66
2021/09/27 07:44:13;;;;;;;2.38;0.95;;;13.20;99.90;;;;;;4977501;28;20113;-67
2021/09/27 07:46:40;;;;;;;1.42;0.60;;;13.30;99.90;;;;;;4977975;28;20104;-72
2021/09/27 07:49:08;;;;;;;0.43;0.40;;;13.40;99.90;;;;;;4981843;28;20092;-68
2021/09/27 07:51:37;;;;;;;1.88;0.90;;;13.40;99.90;;;;;;4980636;28;20074;-68
2021/09/27 07:54:05;;;;;;;1.05;1.00;;;13.50;99.90;;;;;;4981831;28;20082;-67
2021/09/27 07:56:32;;;;;;;3.05;0.93;;;13.60;99.90;;;;;;4973532;28;20057;-66
2021/09/27 07:59:00;;;;;;;3.17;0.32;;;13.70;99.90;;;;;;4982404;28;20084;-68
2021/09/27 08:01:28;;;;;;;2.90;0.40;;;13.80;99.90;;;;;;4974424;28;20077;-68
2021/09/27 08:03:55;;;;;;;3.08;0.75;;;13.80;99.90;;;;;;4981965;28;20065;-67
2021/09/27 08:06:22;;;;;;;0.77;0.50;;;13.80;99.90;;;;;;4980242;28;20141;-66
2021/09/27 08:08:48;;;;;;;1.70;0.43;;;13.90;99.90;;;;;;4984683;28;20062;-65
2021/09/27 08:11:15;;;;;;;0.75;0.60;;;14.00;99.90;;;;;;4980964;28;20468;-68
2021/09/27 08:13:42;;;;;;;1.70;0.80;;;14.00;99.90;;;;;;4978052;28;20145;-65
2021/09/27 08:16:10;;;;;;;1.52;0.90;;;14.10;99.90;;;;;;4979681;28;21146;-65
2021/09/27 08:18:37;;;;;;;1.30;0.70;;;14.10;99.90;;;;;;4980927;28;20046;-67
2021/09/27 08:21:07;;;;;;;1.27;0.63;;;14.20;99.90;;;;;;4980595;28;20116;-66
2021/09/27 08:23:35;;;;;;;1.13;0.40;;;14.20;99.90;;;;;;4983239;28;20409;-65
2021/09/27 08:26:03;;;;;;;1.85;0.40;;;14.30;99.90;;;;;;4980552;28;20054;-68
2021/09/27 08:28:31;;;;;;;1.58;0.45;;;14.40;99.90;;;;;;4981879;28;20481;-65
2021/09/27 08:31:01;;;;;;;1.05;0.50;;;14.40;99.90;;;;;;4976810;28;20105;-70
2021/09/27 08:33:30;;;;;;;1.73;0.63;;;14.40;99.90;;;;;;4979255;28;20046;-65
2021/09/27 08:36:01;;;;;;;1.80;0.47;;;14.50;99.90;;;;;;4981696;28;20121;-68
2021/09/27 08:38:28;;;;;;;0.60;0.17;;;14.60;99.90;;;;;;4981122;28;20038;-67
2021/09/27 08:41:21;;;;;;;0.68;0.40;;;14.60;99.90;;;;;;4972986;28;20579;-67
2021/09/27 08:44:21;;;;;;;1.60;0.30;;;14.70;99.90;;;;;;4981278;28;20097;-67
2021/09/27 08:46:52;;;;;;;0.85;0.85;;;14.60;99.90;;;;;;4979527;28;20149;-66
2021/09/27 08:49:28;;;;;;;0.65;0.32;;;14.70;99.90;;;;;;4981287;28;20202;-66
2021/09/27 08:51:55;;;;;;;1.95;0.47;;;14.70;99.90;;;;;;4981089;28;20050;-70
2021/09/27 08:54:27;;;;;;;1.75;0.30;;;14.90;99.90;;;;;;4979179;28;20149;-67
2021/09/27 08:57:10;;;;;;;0.52;0.30;;;14.90;99.90;;;;;;4980209;28;20073;-70
2021/09/27 08:59:46;;;;;;;0.65;0.30;;;15.00;99.90;;;;;;4981340;28;20070;-67
2021/09/27 09:02:44;;;;;;;1.55;0.80;;;15.00;99.90;;;;;;4974572;28;20373;-68
2021/09/27 09:05:20;;;;;;;0.55;0.30;;;15.10;99.90;;;;;;4961379;28;20141;-65
2021/09/27 09:07:53;;;;;;;0.93;0.40;;;15.20;99.90;;;;;;4981411;28;20777;-65
2021/09/27 09:10:41;;;;;;;1.42;0.43;;;15.20;99.90;;;;;;4979535;28;20144;-67
2021/09/27 09:13:13;;;;;;;1.85;0.50;;;15.20;99.90;;;;;;4980748;28;20046;-65
2021/09/27 09:15:43;;;;;;;0.98;0.50;;;15.30;99.90;;;;;;4980896;28;20109;-65
2021/09/27 09:18:21;;;;;;;0.63;0.30;;;15.30;99.90;;;;;;4977525;28;20202;-65
2021/09/27 09:20:51;;;;;;;1.10;0.38;;;15.40;99.90;;;;;;4980989;28;20488;-66
2021/09/27 09:23:32;;;;;;;0.93;0.25;;;15.50;99.90;;;;;;4979546;28;20105;-66
2021/09/27 09:26:03;;;;;;;0.70;0.40;;;15.60;99.90;;;;;;4978941;28;20069;-66
2021/09/27 09:28:31;;;;;;;2.88;0.30;;;15.60;99.90;;;;;;4977095;28;20046;-66
2021/09/27 09:31:07;;;;;;;2.25;0.60;;;15.70;99.90;;;;;;4974641;28;20070;-66
2021/09/27 09:33:34;;;;;;;0.52;0.40;;;15.70;99.90;;;;;;4984288;28;20401;-68
2021/09/27 09:36:01;;;;;;;1.70;0.40;;;15.70;99.90;;;;;;4978670;28;20070;-66
2021/09/27 09:38:32;;;;;;;0.30;0.30;;;15.80;99.90;;;;;;4981329;28;20054;-66
2021/09/27 09:40:59;;;;;;;1.60;0.60;;;15.80;99.90;;;;;;4982198;28;20070;-66
2021/09/27 09:43:35;;;;;;;2.25;0.25;;;15.90;99.90;;;;;;4985059;28;20136;-65
2021/09/27 09:46:07;;;;;;;0.57;0.15;;;16.00;99.90;;;;;;4984018;28;20080;-71
2021/09/27 09:48:40;;;;;;;0.43;0.30;;;16.00;99.90;;;;;;4980199;28;20050;-67
2021/09/27 09:51:24;;;;;;;0.98;0.40;;;16.10;99.90;;;;;;4975918;28;20172;-66
2021/09/27 09:54:19;;;;;;;1.55;0.35;;;16.10;99.90;;;;;;4980941;28;20803;-67
2021/09/27 09:57:16;;;;;;;0.10;0.10;;;16.10;99.90;;;;;;4983072;28;20491;-66
2021/09/27 09:59:59;;;;;;;0.38;0.28;;;16.30;99.90;;;;;;4983516;28;20141;-68
2021/09/27 10:02:27;;;;;;;0.95;0.30;;;16.30;99.90;;;;;;4979919;28;20751;-70
2021/09/27 10:05:04;;;;;;;0.20;0.20;;;16.40;99.90;;;;;;4983191;28;20050;-67
2021/09/27 10:07:44;;;;;;;1.60;0.20;;;16.40;99.90;;;;;;4982193;28;20080;-66
2021/09/27 10:10:35;;;;;;;0.65;0.40;;;16.40;99.90;;;;;;4979133;28;20730;-66
2021/09/27 10:13:06;;;;;;;2.63;0.98;;;16.50;99.90;;;;;;4984474;28;20733;-67
2021/09/27 10:15:33;;;;;;;5.38;0.82;;;16.50;99.90;;;;;;4982862;28;20074;-65
2021/09/27 10:18:04;;;;;;;0.70;0.40;;;16.50;99.90;;;;;;4984269;28;20046;-66
2021/09/27 10:20:41;;;;;;;1.98;0.35;;;16.50;99.90;;;;;;4981679;28;20180;-66
2021/09/27 10:23:13;;;;;;;2.35;0.20;;;16.60;99.90;;;;;;4981191;28;20058;-68
2021/09/27 10:25:45;;;;;;;1.98;0.20;;;16.60;99.90;;;;;;4982946;28;20554;-67
2021/09/27 10:28:18;;;;;;;0.90;0.30;;;16.60;99.90;;;;;;4977886;28;20077;-65
2021/09/27 10:30:59;;;;;;;0.50;0.47;;;16.60;99.90;;;;;;4977848;28;20145;-64
2021/09/27 10:33:33;;;;;;;0.30;0.28;;;16.70;99.90;;;;;;4977377;28;20066;-67
2021/09/27 10:36:18;;;;;;;0.95;0.40;;;16.80;99.90;;;;;;4985482;28;20050;-66
2021/09/27 10:38:54;;;;;;;0.35;0.20;;;16.80;99.90;;;;;;4983810;28;20076;-65
2021/09/27 10:41:26;;;;;;;0.40;0.20;;;16.80;99.90;;;;;;4983402;28;20058;-66
2021/09/27 10:43:56;;;;;;;1.85;0.30;;;16.80;99.90;;;;;;4981481;28;20066;-66
2021/09/27 10:46:33;;;;;;;0.40;0.20;;;16.90;99.90;;;;;;4975312;28;20108;-66
2021/09/27 10:49:03;;;;;;;2.83;0.20;;;17.00;99.90;;;;;;4983236;28;20146;-67
2021/09/27 10:51:35;;;;;;;0.63;0.43;;;17.00;99.90;;;;;;4977192;28;20149;-66
2021/09/27 10:54:36;;;;;;;0.45;0.10;;;17.00;99.90;;;;;;4983448;28;20109;-65
2021/09/27 10:57:12;;;;;;;0.13;0.10;;;17.10;99.90;;;;;;4980352;28;20129;-66
2021/09/27 11:00:29;;;;;;;0.43;0.20;;;17.20;99.90;;;;;;4988136;28;20057;-66
2021/09/27 11:03:14;;;;;;;1.38;0.28;;;17.20;99.90;;;;;;4924915;28;20069;-67
2021/09/27 11:05:50;;;;;;;0.50;0.30;;;17.30;99.90;;;;;;4978966;28;20138;-67
2021/09/27 11:08:48;;;;;;;0.68;0.20;;;17.30;99.90;;;;;;4979240;28;20125;-67
2021/09/27 11:11:18;;;;;;;0.88;0.15;;;17.30;99.90;;;;;;4979731;28;20054;-66
2021/09/27 11:13:47;;;;;;;0.08;0.00;;;17.30;99.90;;;;;;4982903;28;20037;-72
2021/09/27 11:16:31;;;;;;;2.17;0.28;;;17.30;99.90;;;;;;4982151;28;21098;-66
2021/09/27 11:19:35;;;;;;;2.97;0.20;;;17.30;99.90;;;;;;4981057;28;20057;-65
2021/09/27 11:22:14;;;;;;;1.55;0.10;;;17.30;99.90;;;;;;4976031;28;20695;-65
2021/09/27 11:24:44;;;;;;;0.20;0.20;;;17.40;99.90;;;;;;4982174;28;20120;-69
2021/09/27 11:27:17;;;;;;;0.60;0.20;;;17.40;99.90;;;;;;4982184;28;20050;-67
2021/09/27 11:29:46;;;;;;;0.40;0.08;;;17.50;99.90;;;;;;4983192;28;20066;-67
2021/09/27 11:32:36;;;;;;;0.22;0.10;;;17.50;99.90;;;;;;4976459;28;20082;-65
2021/09/27 11:35:16;;;;;;;0.50;0.17;;;17.50;99.90;;;;;;4982665;28;20105;-65
2021/09/27 11:37:43;;;;;;;0.10;0.00;;;17.50;99.90;;;;;;4980544;28;20042;-67
2021/09/27 11:40:21;;;;;;;0.90;0.52;;;17.50;99.90;;;;;;4977997;28;20046;-64
2021/09/27 11:43:04;;;;;;;0.60;0.28;;;17.50;99.90;;;;;;4980732;28;20108;-65
2021/09/27 11:45:36;;;;;;;4.90;0.40;;;17.40;99.90;;;;;;4980881;28;20081;-66
2021/09/27 11:48:10;;;;;;;0.82;0.30;;;17.60;99.90;;;;;;4982450;28;20046;-66
2021/09/27 11:50:51;;;;;;;0.35;0.25;;;17.60;99.90;;;;;;4983220;28;20090;-67
2021/09/27 11:53:40;;;;;;;2.47;0.40;;;17.60;99.90;;;;;;4981916;28;20555;-69
2021/09/27 11:56:21;;;;;;;2.83;0.60;;;17.60;99.90;;;;;;4983667;28;20074;-68
2021/09/27 11:58:57;;;;;;;;;;;17.60;99.90;;;;;;4980585;28;20054;-66
2021/09/27 12:01:43;;;;;;;0.60;0.32;;;17.60;99.90;;;;;;4982438;28;20334;-67
2021/09/27 12:04:29;;;;;;;0.55;0.25;;;17.50;99.90;;;;;;4978523;28;20054;-67
2021/09/27 12:07:02;;;;;;;0.43;0.30;;;17.40;99.90;;;;;;4980351;28;20070;-69
2021/09/27 12:09:38;;;;;;;1.60;0.47;;;17.40;99.90;;;;;;4981632;28;20109;-66
2021/09/27 12:12:07;;;;;;;1.45;0.57;;;17.50;99.90;;;;;;4980305;28;20057;-67
2021/09/27 12:14:40;;;;;;;2.28;0.43;;;17.60;99.90;;;;;;4983775;28;20112;-66
2021/09/27 12:17:13;;;;;;;0.47;0.35;;;17.60;99.90;;;;;;4979650;28;20054;-65
2021/09/27 12:20:15;;;;;;;1.60;0.30;;;17.50;99.90;;;;;;4977752;28;20075;-66
2021/09/27 12:22:47;;;;;;;1.75;0.60;;;17.50;99.90;;;;;;4981923;28;20081;-67
2021/09/27 12:25:22;;;;;;;1.95;0.38;;;17.40;99.90;;;;;;4975302;28;20511;-67
2021/09/27 12:27:53;;;;;;;1.98;0.73;;;17.40;99.90;;;;;;4983359;28;20085;-67
2021/09/27 12:30:24;;;;;;;1.05;0.70;;;17.40;99.90;;;;;;4980666;28;20129;-66
2021/09/27 12:32:58;;;;;;;1.50;0.50;;;17.30;99.90;;;;;;4984369;28;20496;-66
2021/09/27 12:35:36;;;;;;;1.10;1.10;;;17.30;99.90;;;;;;4980120;28;20077;-67
2021/09/27 12:38:04;;;;;;;0.63;0.47;;;17.30;99.90;;;;;;4984015;28;20104;-67
2021/09/27 12:40:52;;;;;;;2.67;0.68;;;17.30;99.90;;;;;;4981929;28;20081;-68
2021/09/27 12:43:21;;;;;;;1.23;0.68;;;17.40;99.90;;;;;;4973742;28;20113;-66
2021/09/27 12:45:55;;;;;;;1.25;0.60;;;17.30;99.90;;;;;;4981166;28;20085;-66
2021/09/27 12:48:33;;;;;;;4.28;1.05;;;17.20;99.90;;;;;;4975931;28;20146;-66
2021/09/27 12:51:26;;;;;;;3.33;0.65;;;17.20;99.90;;;;;;4979593;28;20640;-67
2021/09/27 12:54:29;;;;;;;1.38;0.80;;;17.20;99.90;;;;;;4979677;28;20069;-71
2021/09/27 12:57:01;;;;;;;1.13;0.80;;;17.10;99.90;;;;;;4963237;28;20408;-69
2021/09/27 12:59:31;;;;;;;1.08;0.55;;;17.10;99.90;;;;;;4981885;28;20774;-67
2021/09/27 13:02:01;;;;;;;1.15;0.60;;;17.00;99.90;;;;;;4982528;28;20108;-66
2021/09/27 13:04:32;;;;;;;0.95;0.57;;;17.00;99.90;;;;;;4980263;28;20072;-66
2021/09/27 13:07:08;;;;;;;1.65;0.82;;;17.10;99.90;;;;;;4978802;28;20046;-68
2021/09/27 13:09:54;;;;;;;4.68;1.10;;;17.20;99.90;;;;;;4981415;28;20161;-67
2021/09/27 13:12:30;;;;;;;1.45;0.60;;;17.30;99.90;;;;;;4979876;28;20132;-68
2021/09/27 13:15:13;;;;;;;2.47;0.60;;;17.40;99.90;;;;;;4976842;28;20368;-66
2021/09/27 13:18:13;;;;;;;0.82;0.45;;;17.40;99.90;;;;;;4981234;28;20070;-67
2021/09/27 13:21:00;;;;;;;3.22;0.73;;;17.40;99.90;;;;;;4978094;28;20200;-66
2021/09/27 13:23:38;;;;;;;3.30;0.80;;;17.40;99.90;;;;;;4979975;28;20046;-66
2021/09/27 13:26:14;;;;;;;3.83;0.70;;;17.30;99.90;;;;;;4974488;28;20109;-66
2021/09/27 13:28:47;;;;;;;5.38;0.82;;;17.20;99.90;;;;;;4982344;28;20074;-67
2021/09/27 13:31:19;;;;;;;2.40;0.75;;;17.30;99.90;;;;;;4971841;28;20112;-69
2021/09/27 13:33:52;;;;;;;0.75;0.50;;;17.30;99.90;;;;;;4981251;28;20109;-67
2021/09/27 13:36:43;;;;;;;0.77;0.68;;;17.50;99.90;;;;;;4978676;28;20054;-66
2021/09/27 13:39:12;;;;;;;2.10;0.68;;;17.60;99.90;;;;;;4981301;28;20082;-66
2021/09/27 13:42:08;;;;;;;8.32;1.92;;;17.50;99.90;;;;;;4979890;28;20124;-66
2021/09/27 13:44:35;;;;;;;1.10;0.95;;;17.50;99.90;;;;;;4978857;28;20046;-68
2021/09/27 13:47:04;;;;;;;1.58;0.47;;;17.40;99.90;;;;;;4978090;28;20069;-67